Time;durP1;ratioP1;P1;durP2;ratioP2;P2;SDS_P1;SDS_P2;PMS_P1;PMS_P2;Temp;Humidity;BMP_temperature;BMP_pressure;BME280_temperature;BME280_humidity;BME280_pressure;Samples;Min_cycle;Max_cycle;Signal;HPM_P1;HPM_P2
2020/12/11 00:01:39;;;;;;;23.47;17.70;;;3.60;99.90;;;;;;5066964;28;20449;-65
2020/12/11 00:04:06;;;;;;;24.67;18.03;;;3.60;99.90;;;;;;5068297;28;20492;-65
2020/12/11 00:06:33;;;;;;;28.30;19.90;;;3.60;99.90;;;;;;5067715;28;20446;-66
2020/12/11 00:08:59;;;;;;;26.23;18.80;;;3.60;99.90;;;;;;5067942;28;20529;-66
2020/12/11 00:11:27;;;;;;;21.17;17.43;;;3.60;99.90;;;;;;5066314;28;20439;-66
2020/12/11 00:13:54;;;;;;;25.33;17.93;;;3.50;99.90;;;;;;5068919;28;20532;-66
2020/12/11 00:16:20;;;;;;;23.07;18.40;;;3.50;99.90;;;;;;5069613;28;20489;-66
2020/12/11 00:18:47;;;;;;;24.90;18.43;;;3.50;99.90;;;;;;5069208;28;20475;-66
2020/12/11 00:21:13;;;;;;;22.77;17.13;;;3.50;99.90;;;;;;5068353;28;20448;-67
2020/12/11 00:23:40;;;;;;;26.80;17.30;;;3.60;99.90;;;;;;5068794;28;20470;-67
2020/12/11 00:26:07;;;;;;;25.30;18.37;;;3.60;99.90;;;;;;5068909;28;20454;-66
2020/12/11 00:28:33;;;;;;;20.47;16.53;;;3.60;99.90;;;;;;5068987;28;20530;-65
2020/12/11 00:31:00;;;;;;;22.20;17.57;;;3.60;99.90;;;;;;5068288;28;20534;-68
2020/12/11 00:33:26;;;;;;;24.77;17.60;;;3.60;99.90;;;;;;5068878;28;20843;-67
2020/12/11 00:35:53;;;;;;;24.53;17.47;;;3.60;99.90;;;;;;5068848;28;20894;-67
2020/12/11 00:38:20;;;;;;;19.73;16.00;;;3.60;99.90;;;;;;5068794;28;20490;-66
2020/12/11 00:40:47;;;;;;;19.57;17.47;;;3.60;99.90;;;;;;5068072;28;20446;-67
2020/12/11 00:43:13;;;;;;;21.60;16.87;;;3.60;99.90;;;;;;5070115;28;20467;-65
2020/12/11 00:45:40;;;;;;;22.13;16.23;;;3.60;99.90;;;;;;5072781;28;20629;-67
2020/12/11 00:48:07;;;;;;;20.93;16.53;;;3.60;99.90;;;;;;5072670;28;20435;-66
2020/12/11 00:50:33;;;;;;;19.40;16.00;;;3.60;99.90;;;;;;5072186;28;21254;-66
2020/12/11 00:52:59;;;;;;;18.47;14.90;;;3.60;99.90;;;;;;5072536;28;20474;-65
2020/12/11 00:55:26;;;;;;;18.47;14.80;;;3.60;99.90;;;;;;5072524;28;20518;-66
2020/12/11 00:57:53;;;;;;;20.47;16.17;;;3.60;99.90;;;;;;5072619;28;20489;-67
2020/12/11 01:00:19;;;;;;;19.37;15.97;;;3.60;99.90;;;;;;5071706;28;20447;-65
2020/12/11 01:02:46;;;;;;;16.53;14.37;;;3.60;99.90;;;;;;5072475;28;20545;-65
2020/12/11 01:05:12;;;;;;;18.60;14.73;;;3.60;99.90;;;;;;5072281;28;21093;-66
2020/12/11 01:07:39;;;;;;;19.20;15.17;;;3.50;99.90;;;;;;5072412;28;20824;-67
2020/12/11 01:10:05;;;;;;;18.23;15.03;;;3.50;99.90;;;;;;5071673;28;20439;-67
2020/12/11 01:12:32;;;;;;;19.03;15.43;;;3.50;99.90;;;;;;5072182;28;20459;-66
2020/12/11 01:14:59;;;;;;;17.70;14.47;;;3.50;99.90;;;;;;5072479;28;20481;-65
2020/12/11 01:17:25;;;;;;;16.93;13.90;;;3.50;99.90;;;;;;5072137;28;20548;-66
2020/12/11 01:19:51;;;;;;;20.03;15.83;;;3.50;99.90;;;;;;5072099;28;20443;-65
2020/12/11 01:22:18;;;;;;;18.20;14.47;;;3.40;99.90;;;;;;5071218;28;20466;-66
2020/12/11 01:24:44;;;;;;;17.50;15.60;;;3.40;99.90;;;;;;5071206;28;21169;-66
2020/12/11 01:27:12;;;;;;;17.30;14.70;;;3.40;99.90;;;;;;5071902;28;20296;-67
2020/12/11 01:29:38;;;;;;;14.80;12.60;;;3.50;99.90;;;;;;5071934;28;20804;-66
2020/12/11 01:32:05;;;;;;;14.87;12.17;;;3.50;99.90;;;;;;5070988;28;20553;-66
2020/12/11 01:34:32;;;;;;;14.47;12.87;;;3.50;99.90;;;;;;5071805;28;20451;-65
2020/12/11 01:37:03;;;;;;;13.13;11.17;;;3.40;99.90;;;;;;5071681;28;20477;-67
2020/12/11 01:39:30;;;;;;;14.43;12.93;;;3.40;99.90;;;;;;5072052;28;20478;-66
2020/12/11 01:41:56;;;;;;;14.63;12.60;;;3.30;99.90;;;;;;5071148;28;20577;-67
2020/12/11 01:44:23;;;;;;;16.73;12.70;;;3.30;99.90;;;;;;5071600;28;20438;-66
2020/12/11 01:46:50;;;;;;;15.60;12.43;;;3.20;99.90;;;;;;5071717;28;20534;-68
2020/12/11 01:49:17;;;;;;;15.67;12.50;;;3.20;99.90;;;;;;5071466;28;20455;-67
2020/12/11 01:51:45;;;;;;;14.40;11.60;;;3.00;99.90;;;;;;5070671;28;20493;-67
2020/12/11 01:54:11;;;;;;;13.07;11.37;;;3.00;99.90;;;;;;5070879;28;20526;-67
2020/12/11 01:56:56;;;;;;;14.70;13.20;;;2.90;99.90;;;;;;5072138;28;20810;-67
2020/12/11 01:59:35;;;;;;;16.60;12.60;;;2.90;99.90;;;;;;5072501;28;20483;-68
2020/12/11 02:02:04;;;;;;;14.83;12.13;;;2.90;99.90;;;;;;5070835;28;20459;-67
2020/12/11 02:04:33;;;;;;;13.90;11.33;;;2.90;99.90;;;;;;5071267;28;20441;-67
2020/12/11 02:07:00;;;;;;;14.30;12.30;;;3.00;99.90;;;;;;5071221;28;20539;-66
2020/12/11 02:09:27;;;;;;;14.20;11.57;;;3.00;99.90;;;;;;5071143;28;20431;-68
2020/12/11 02:11:54;;;;;;;13.57;11.83;;;2.90;99.90;;;;;;5070292;28;20486;-68
2020/12/11 02:14:20;;;;;;;13.53;11.80;;;2.90;99.90;;;;;;5071027;28;20445;-67
2020/12/11 02:16:47;;;;;;;13.07;11.40;;;2.90;99.90;;;;;;5070760;28;20934;-66
2020/12/11 02:19:13;;;;;;;13.80;11.90;;;2.80;99.90;;;;;;5070951;28;20479;-67
2020/12/11 02:21:41;;;;;;;12.93;11.10;;;2.80;99.90;;;;;;5070232;28;20518;-65
2020/12/11 02:24:07;;;;;;;15.93;12.90;;;2.80;99.90;;;;;;5070728;28;20538;-67
2020/12/11 02:26:33;;;;;;;13.30;11.70;;;2.80;99.90;;;;;;5070849;28;20518;-66
2020/12/11 02:29:00;;;;;;;12.90;10.80;;;2.80;99.90;;;;;;5070640;28;21054;-65
2020/12/11 02:31:26;;;;;;;14.60;13.10;;;2.70;99.90;;;;;;5069955;28;20952;-67
2020/12/11 02:33:52;;;;;;;15.43;12.83;;;2.70;99.90;;;;;;5070630;28;20443;-67
2020/12/11 02:36:22;;;;;;;14.17;11.77;;;2.60;99.90;;;;;;5070690;28;20822;-66
2020/12/11 02:38:49;;;;;;;13.43;11.50;;;2.60;99.90;;;;;;5070301;28;20479;-67
2020/12/11 02:41:16;;;;;;;14.10;11.57;;;2.50;99.90;;;;;;5069856;28;20439;-66
2020/12/11 02:43:43;;;;;;;14.43;12.07;;;2.40;99.90;;;;;;5070228;28;21049;-66
2020/12/11 02:46:09;;;;;;;12.67;11.30;;;2.40;99.90;;;;;;5070544;28;20443;-66
2020/12/11 02:48:35;;;;;;;14.20;11.30;;;2.30;99.90;;;;;;5070523;28;20959;-65
2020/12/11 02:51:02;;;;;;;14.00;12.30;;;2.30;99.90;;;;;;5069855;28;20450;-67
2020/12/11 02:53:28;;;;;;;16.00;13.43;;;2.10;99.90;;;;;;5070304;28;20463;-66
2020/12/11 02:55:58;;;;;;;17.00;13.90;;;2.10;99.90;;;;;;5070231;28;20457;-66
2020/12/11 02:58:24;;;;;;;16.07;12.93;;;2.10;99.90;;;;;;5070032;28;20474;-67
2020/12/11 03:00:50;;;;;;;16.50;12.07;;;2.00;99.90;;;;;;5069555;28;20525;-67
2020/12/11 03:03:17;;;;;;;16.07;12.97;;;2.00;99.90;;;;;;5069938;28;21029;-66
2020/12/11 03:05:43;;;;;;;21.67;16.17;;;1.90;99.90;;;;;;5069653;28;20446;-66
2020/12/11 03:08:09;;;;;;;18.90;14.80;;;1.90;99.90;;;;;;5069958;28;20435;-67
2020/12/11 03:10:36;;;;;;;19.47;15.27;;;1.90;99.90;;;;;;5069771;28;20435;-68
2020/12/11 03:13:03;;;;;;;23.13;16.50;;;1.90;99.90;;;;;;5072079;28;20495;-65
2020/12/11 03:15:29;;;;;;;21.17;16.00;;;1.90;99.90;;;;;;5071005;28;21021;-66
2020/12/11 03:17:56;;;;;;;17.17;14.50;;;1.90;99.90;;;;;;5070379;28;20479;-67
2020/12/11 03:20:25;;;;;;;22.47;16.27;;;1.90;99.90;;;;;;5069183;28;20950;-68
2020/12/11 03:22:52;;;;;;;18.23;14.60;;;1.80;99.90;;;;;;5069838;28;20465;-66
2020/12/11 03:25:19;;;;;;;20.27;16.27;;;1.80;99.90;;;;;;5070145;28;20530;-68
2020/12/11 03:27:45;;;;;;;18.87;15.37;;;1.70;99.90;;;;;;5070014;28;20518;-67
2020/12/11 03:30:12;;;;;;;24.20;17.13;;;1.60;99.90;;;;;;5069454;28;20833;-68
2020/12/11 03:32:39;;;;;;;21.17;15.80;;;1.60;99.90;;;;;;5070091;28;20485;-67
2020/12/11 03:35:06;;;;;;;20.90;16.03;;;1.50;99.90;;;;;;5069904;28;20447;-69
2020/12/11 03:37:32;;;;;;;19.77;16.40;;;1.40;99.90;;;;;;5069575;28;20450;-68
2020/12/11 03:39:59;;;;;;;22.97;16.30;;;1.30;99.90;;;;;;5068943;28;20445;-66
2020/12/11 03:42:25;;;;;;;22.63;16.13;;;1.30;99.90;;;;;;5069372;28;20455;-65
2020/12/11 03:44:51;;;;;;;19.90;15.10;;;1.20;99.90;;;;;;5068937;28;20440;-67
2020/12/11 03:47:18;;;;;;;23.03;16.53;;;1.10;99.90;;;;;;5068529;28;20443;-67
2020/12/11 03:49:45;;;;;;;24.43;15.83;;;1.10;99.90;;;;;;5069481;28;20872;-66
2020/12/11 03:52:11;;;;;;;25.50;17.40;;;1.10;99.90;;;;;;5068641;28;21054;-65
2020/12/11 03:54:37;;;;;;;26.50;18.13;;;1.00;99.90;;;;;;5069258;28;20453;-66
2020/12/11 03:57:04;;;;;;;24.73;17.60;;;1.00;99.90;;;;;;5069304;28;20441;-67
2020/12/11 03:59:30;;;;;;;28.40;19.63;;;1.00;99.90;;;;;;5069465;28;20497;-66
2020/12/11 04:01:57;;;;;;;24.63;16.67;;;1.00;99.90;;;;;;5068550;28;20880;-66
2020/12/11 04:04:24;;;;;;;25.37;19.10;;;0.90;99.90;;;;;;5069190;28;21008;-65
2020/12/11 04:06:50;;;;;;;25.57;18.63;;;0.90;99.90;;;;;;5069273;28;20542;-67
2020/12/11 04:09:16;;;;;;;24.17;16.97;;;0.90;99.90;;;;;;5069074;28;20547;-67
2020/12/11 04:11:43;;;;;;;26.40;18.13;;;0.90;99.90;;;;;;5068596;28;20903;-66
2020/12/11 04:14:09;;;;;;;25.23;17.70;;;0.90;99.90;;;;;;5069286;28;20534;-66
2020/12/11 04:16:35;;;;;;;26.30;17.60;;;0.90;99.90;;;;;;5069223;28;20876;-65
2020/12/11 04:19:02;;;;;;;28.57;19.20;;;0.80;99.90;;;;;;5071931;28;20477;-66
2020/12/11 04:21:29;;;;;;;27.03;17.77;;;0.80;99.90;;;;;;5072250;28;20976;-67
2020/12/11 04:23:56;;;;;;;26.27;18.60;;;0.90;99.90;;;;;;5072943;28;20454;-65
2020/12/11 04:26:22;;;;;;;25.90;17.47;;;0.90;99.90;;;;;;5073503;28;20447;-67
2020/12/11 04:28:48;;;;;;;26.60;17.97;;;1.00;99.90;;;;;;5073426;28;21017;-67
2020/12/11 04:31:18;;;;;;;27.70;19.40;;;1.00;99.90;;;;;;5072254;28;20534;-67
2020/12/11 04:33:44;;;;;;;25.90;17.77;;;1.00;99.90;;;;;;5072850;28;20830;-67
2020/12/11 04:36:16;;;;;;;29.17;20.70;;;1.00;99.90;;;;;;5072883;28;20529;-67
2020/12/11 04:38:44;;;;;;;26.43;18.77;;;1.00;99.90;;;;;;5073049;28;20834;-65
2020/12/11 04:41:13;;;;;;;29.50;19.73;;;1.10;99.90;;;;;;5072250;28;20439;-66
2020/12/11 04:43:40;;;;;;;28.70;20.60;;;1.10;99.90;;;;;;5072391;28;20471;-66
2020/12/11 04:46:07;;;;;;;27.60;19.70;;;1.10;99.90;;;;;;5072636;28;20528;-66
2020/12/11 04:48:34;;;;;;;30.73;19.03;;;1.10;99.90;;;;;;5072636;28;20441;-65
2020/12/11 04:51:01;;;;;;;31.42;24.50;;;1.10;99.90;;;;;;5070964;28;20441;-65
2020/12/11 04:53:33;;;;;;;30.63;20.73;;;1.10;99.90;;;;;;5072677;28;20595;-65
2020/12/11 04:56:02;;;;;;;29.30;19.37;;;1.00;99.90;;;;;;5072645;28;20456;-66
2020/12/11 04:58:31;;;;;;;29.17;19.03;;;0.90;99.90;;;;;;5072485;28;20504;-65
2020/12/11 05:01:02;;;;;;;28.30;19.53;;;0.80;99.90;;;;;;5071726;28;20454;-66
2020/12/11 05:03:31;;;;;;;29.30;20.40;;;0.80;99.90;;;;;;5072324;28;20481;-66
2020/12/11 05:05:57;;;;;;;29.07;18.80;;;0.70;99.90;;;;;;5072450;28;20537;-66
2020/12/11 05:08:24;;;;;;;26.73;18.53;;;0.50;99.90;;;;;;5072387;28;20457;-65
2020/12/11 05:10:50;;;;;;;28.63;19.87;;;0.50;99.90;;;;;;5071458;28;20525;-65
2020/12/11 05:13:19;;;;;;;26.87;18.17;;;0.40;99.90;;;;;;5072146;28;20548;-66
2020/12/11 05:16:09;;;;;;;29.30;18.10;;;0.30;99.90;;;;;;5072112;28;20466;-65
2020/12/11 05:18:36;;;;;;;30.33;18.60;;;0.30;99.90;;;;;;5071229;28;20564;-65
2020/12/11 05:21:16;;;;;;;33.47;20.50;;;0.20;99.90;;;;;;5071664;28;20529;-66
2020/12/11 05:24:01;;;;;;;28.90;19.40;;;0.10;99.90;;;;;;5072133;28;20481;-66
2020/12/11 05:26:30;;;;;;;31.73;20.87;;;0.00;99.90;;;;;;5072860;28;20445;-65
2020/12/11 05:28:57;;;;;;;31.73;20.27;;;0.00;99.90;;;;;;5072615;28;20885;-66
2020/12/11 05:31:24;;;;;;;31.13;20.80;;;0.00;99.90;;;;;;5071397;28;20439;-66
2020/12/11 05:34:05;;;;;;;32.80;20.60;;;0.00;99.90;;;;;;5072055;28;20530;-66
2020/12/11 05:36:43;;;;;;;32.83;19.90;;;0.00;99.90;;;;;;5071883;28;20471;-66
2020/12/11 05:39:09;;;;;;;33.77;20.07;;;-0.10;99.90;;;;;;5074085;28;20518;-66
2020/12/11 05:41:37;;;;;;;36.50;21.70;;;-0.10;99.90;;;;;;5071060;28;20445;-67
2020/12/11 05:44:23;;;;;;;35.00;19.73;;;-0.20;99.90;;;;;;5071591;28;20439;-65
2020/12/11 05:46:49;;;;;;;35.23;20.37;;;-0.20;99.90;;;;;;5071714;28;20537;-65
2020/12/11 05:49:23;;;;;;;34.93;21.27;;;-0.20;99.90;;;;;;5071501;28;20530;-68
2020/12/11 05:51:56;;;;;;;34.10;21.60;;;-0.30;99.90;;;;;;5069880;28;20467;-64
2020/12/11 05:54:23;;;;;;;32.40;19.80;;;-0.30;99.90;;;;;;5071966;28;20446;-66
2020/12/11 05:56:52;;;;;;;33.07;19.23;;;-0.40;99.90;;;;;;5071349;28;20934;-65
2020/12/11 05:59:21;;;;;;;32.37;20.10;;;-0.40;99.90;;;;;;5071346;28;20475;-65
2020/12/11 06:01:49;;;;;;;31.87;21.27;;;-0.50;99.90;;;;;;5070428;28;20459;-66
2020/12/11 06:04:18;;;;;;;31.70;21.20;;;-0.40;99.90;;;;;;5071097;28;20447;-67
2020/12/11 06:06:46;;;;;;;40.10;24.07;;;-0.40;99.90;;;;;;5071105;28;20443;-65
2020/12/11 06:09:14;;;;;;;35.97;22.97;;;-0.40;99.90;;;;;;5071268;28;20459;-64
2020/12/11 06:11:47;;;;;;;36.03;23.40;;;-0.30;99.90;;;;;;5068767;28;20431;-65
2020/12/11 06:14:28;;;;;;;34.10;21.40;;;-0.30;99.90;;;;;;5070427;28;20443;-66
2020/12/11 06:16:56;;;;;;;34.60;21.20;;;-0.30;99.90;;;;;;5072094;28;20447;-64
2020/12/11 06:19:23;;;;;;;36.63;22.57;;;-0.30;99.90;;;;;;5072157;28;20489;-65
2020/12/11 06:21:50;;;;;;;36.33;22.30;;;-0.20;99.90;;;;;;5071110;28;20479;-67
2020/12/11 06:24:30;;;;;;;33.13;21.10;;;-0.20;99.90;;;;;;5070385;28;20440;-64
2020/12/11 06:26:57;;;;;;;35.80;21.97;;;-0.20;99.90;;;;;;5071030;28;20515;-66
2020/12/11 06:29:28;;;;;;;34.67;21.80;;;-0.20;99.90;;;;;;5071080;28;20534;-64
2020/12/11 06:31:55;;;;;;;35.80;22.63;;;-0.20;99.90;;;;;;5070166;28;20621;-64
2020/12/11 06:34:24;;;;;;;36.00;21.93;;;-0.10;99.90;;;;;;5070654;28;20518;-65
2020/12/11 06:36:51;;;;;;;40.17;24.77;;;-0.10;99.90;;;;;;5070545;28;20934;-66
2020/12/11 06:39:40;;;;;;;41.67;25.10;;;0.00;99.90;;;;;;5070643;28;20475;-66
2020/12/11 06:42:07;;;;;;;41.90;23.20;;;0.00;99.90;;;;;;5069235;28;20467;-65
2020/12/11 06:44:36;;;;;;;39.73;23.90;;;0.10;99.90;;;;;;5070390;28;20859;-66
2020/12/11 06:47:11;;;;;;;40.27;21.93;;;0.20;99.90;;;;;;5070850;28;20545;-66
2020/12/11 06:50:05;;;;;;;31.67;20.13;;;0.20;99.90;;;;;;5070601;28;20449;-67
2020/12/11 06:52:34;;;;;;;32.53;22.80;;;0.30;99.90;;;;;;5070451;28;20534;-66
2020/12/11 06:55:01;;;;;;;31.77;20.77;;;0.30;99.90;;;;;;5070473;28;20446;-67
2020/12/11 06:57:39;;;;;;;31.17;21.00;;;0.40;99.90;;;;;;5070379;28;20451;-66
2020/12/11 07:00:24;;;;;;;34.90;20.63;;;0.40;99.90;;;;;;5069594;28;20479;-65
2020/12/11 07:03:28;;;;;;;29.03;19.13;;;0.50;99.90;;;;;;5070225;28;20450;-66
2020/12/11 07:05:59;;;;;;;26.97;17.17;;;0.60;99.90;;;;;;5068524;28;20530;-66
2020/12/11 07:08:26;;;;;;;29.00;18.80;;;0.60;99.90;;;;;;5070098;28;20871;-65
2020/12/11 07:10:52;;;;;;;30.70;19.23;;;0.70;99.90;;;;;;5069307;28;20449;-65
2020/12/11 07:13:19;;;;;;;29.80;17.40;;;0.70;99.90;;;;;;5069845;28;21030;-65
2020/12/11 07:15:46;;;;;;;28.80;17.13;;;0.70;99.90;;;;;;5069990;28;20513;-67
2020/12/11 07:18:14;;;;;;;28.47;17.70;;;0.80;99.90;;;;;;5069974;28;20489;-65
2020/12/11 07:20:48;;;;;;;23.90;16.03;;;0.80;99.90;;;;;;5069029;28;20475;-65
2020/12/11 07:23:16;;;;;;;29.37;16.73;;;0.90;99.90;;;;;;5069626;28;20922;-66
2020/12/11 07:25:42;;;;;;;29.70;17.83;;;0.90;99.90;;;;;;5069641;28;20479;-67
2020/12/11 07:28:09;;;;;;;25.73;17.47;;;0.90;99.90;;;;;;5069669;28;20957;-66
2020/12/11 07:30:35;;;;;;;25.33;17.97;;;1.00;99.90;;;;;;5068669;28;20446;-66
2020/12/11 07:33:03;;;;;;;27.63;16.87;;;1.00;99.90;;;;;;5069768;28;20459;-66
2020/12/11 07:35:29;;;;;;;30.07;17.17;;;1.00;99.90;;;;;;5069488;28;20526;-66
2020/12/11 07:37:57;;;;;;;25.90;16.10;;;1.00;99.90;;;;;;5069480;28;20514;-66
2020/12/11 07:40:25;;;;;;;24.50;16.23;;;1.00;99.90;;;;;;5068844;28;20447;-66
2020/12/11 07:42:52;;;;;;;25.80;17.10;;;1.00;99.90;;;;;;5069250;28;20455;-65
2020/12/11 07:45:26;;;;;;;23.27;16.30;;;1.10;99.90;;;;;;5069603;28;20970;-67
2020/12/11 07:47:54;;;;;;;26.87;17.90;;;1.10;99.90;;;;;;5069595;28;20445;-67
2020/12/11 07:50:22;;;;;;;29.10;19.07;;;1.10;99.90;;;;;;5068964;28;20514;-66
2020/12/11 07:52:51;;;;;;;27.17;19.20;;;1.20;99.90;;;;;;5069261;28;20464;-66
2020/12/11 07:55:19;;;;;;;23.23;16.57;;;1.20;99.90;;;;;;5069344;28;20809;-66
2020/12/11 07:57:52;;;;;;;30.20;22.42;;;1.20;99.90;;;;;;5068701;28;20492;-66
2020/12/11 08:00:19;;;;;;;32.20;20.73;;;1.20;99.90;;;;;;5068408;28;20665;-65
2020/12/11 08:02:52;;;;;;;32.47;20.27;;;1.20;99.90;;;;;;5069442;28;20542;-65
2020/12/11 08:05:19;;;;;;;31.53;18.70;;;1.20;99.90;;;;;;5069319;28;20446;-66
2020/12/11 08:07:50;;;;;;;26.67;17.90;;;1.20;99.90;;;;;;5069521;28;20447;-66
2020/12/11 08:10:19;;;;;;;28.50;19.17;;;1.20;99.90;;;;;;5068743;28;20474;-66
2020/12/11 08:12:46;;;;;;;30.00;18.07;;;1.20;99.90;;;;;;5068999;28;20470;-65
2020/12/11 08:15:27;;;;;;;30.60;19.67;;;1.10;99.90;;;;;;5069075;28;20532;-66
2020/12/11 08:18:06;;;;;;;30.30;19.57;;;1.20;99.90;;;;;;5069294;28;20914;-66
2020/12/11 08:20:49;;;;;;;26.50;18.60;;;1.30;99.90;;;;;;5068359;28;20430;-66
2020/12/11 08:23:30;;;;;;;30.63;18.33;;;1.40;99.90;;;;;;5068935;28;20502;-66
2020/12/11 08:26:08;;;;;;;25.13;15.90;;;1.60;99.90;;;;;;5069185;28;20445;-65
2020/12/11 08:28:35;;;;;;;27.03;18.80;;;1.80;99.90;;;;;;5069054;28;20530;-66
2020/12/11 08:31:15;;;;;;;25.23;17.30;;;2.00;99.90;;;;;;5068208;28;20431;-66
2020/12/11 08:33:42;;;;;;;27.90;18.57;;;2.20;99.90;;;;;;5068750;28;20546;-66
2020/12/11 08:36:18;;;;;;;28.53;19.70;;;2.30;99.90;;;;;;5068792;28;20969;-68
2020/12/11 08:39:13;;;;;;;24.70;16.67;;;2.40;99.90;;;;;;5068867;28;20590;-66
2020/12/11 08:41:44;;;;;;;26.50;17.50;;;2.60;99.90;;;;;;5068100;28;20486;-66
2020/12/11 08:44:26;;;;;;;27.60;18.00;;;2.90;99.90;;;;;;5068699;28;20435;-66
2020/12/11 08:47:10;;;;;;;26.20;17.30;;;3.10;99.90;;;;;;5068881;28;20474;-66
2020/12/11 08:49:45;;;;;;;25.97;17.60;;;3.20;99.90;;;;;;5068651;28;20478;-66
2020/12/11 08:52:12;;;;;;;24.63;17.03;;;3.40;99.90;;;;;;5068198;28;20521;-67
2020/12/11 08:54:39;;;;;;;26.57;17.70;;;3.50;99.90;;;;;;5068689;28;20439;-66
2020/12/11 08:57:06;;;;;;;25.93;17.90;;;3.60;99.90;;;;;;5068915;28;21011;-67
2020/12/11 08:59:32;;;;;;;26.67;19.07;;;3.60;99.90;;;;;;5068591;28;20483;-66
2020/12/11 09:02:01;;;;;;;25.80;16.83;;;3.60;99.90;;;;;;5067908;28;21088;-66
2020/12/11 09:04:29;;;;;;;26.60;17.53;;;3.70;99.90;;;;;;5070515;28;20537;-66
2020/12/11 09:06:56;;;;;;;24.17;17.00;;;3.70;99.90;;;;;;5070836;28;20443;-66
2020/12/11 09:09:22;;;;;;;22.90;16.27;;;3.80;99.90;;;;;;5072343;28;20471;-67
2020/12/11 09:11:50;;;;;;;22.80;16.53;;;3.90;99.90;;;;;;5071880;28;20494;-66
2020/12/11 09:14:16;;;;;;;22.40;16.70;;;4.10;99.90;;;;;;5072181;28;20446;-66
2020/12/11 09:16:42;;;;;;;20.17;16.50;;;4.30;99.90;;;;;;5072131;28;20530;-66
2020/12/11 09:19:09;;;;;;;23.87;17.70;;;4.40;99.90;;;;;;5072190;28;20482;-66
2020/12/11 09:21:36;;;;;;;26.33;16.33;;;4.50;99.90;;;;;;5071391;28;20840;-66
2020/12/11 09:24:03;;;;;;;23.63;17.67;;;4.50;99.90;;;;;;5071960;28;20880;-65
2020/12/11 09:26:32;;;;;;;24.53;17.40;;;4.50;99.90;;;;;;5072286;28;20449;-66
2020/12/11 09:29:07;;;;;;;21.70;16.10;;;4.60;99.90;;;;;;5072063;28;20439;-65
2020/12/11 09:31:34;;;;;;;23.03;15.77;;;4.60;99.90;;;;;;5071290;28;20866;-66
2020/12/11 09:34:01;;;;;;;23.13;16.93;;;4.60;99.90;;;;;;5071820;28;20438;-66
2020/12/11 09:36:27;;;;;;;23.43;17.10;;;4.60;99.90;;;;;;5071690;28;20449;-67
2020/12/11 09:38:54;;;;;;;26.60;19.10;;;4.50;99.90;;;;;;5071770;28;20929;-66
2020/12/11 09:41:25;;;;;;;25.23;17.90;;;4.60;99.90;;;;;;5071292;28;20533;-67
2020/12/11 09:44:11;;;;;;;23.30;16.83;;;4.60;99.90;;;;;;5071364;28;20455;-66
2020/12/11 09:46:44;;;;;;;19.50;15.37;;;4.60;99.90;;;;;;5071825;28;20454;-66
2020/12/11 09:49:13;;;;;;;21.13;15.60;;;4.60;99.90;;;;;;5071583;28;20443;-66
2020/12/11 09:52:09;;;;;;;19.63;15.60;;;4.70;99.90;;;;;;5071024;28;20496;-66
2020/12/11 09:54:37;;;;;;;20.90;15.17;;;4.60;99.90;;;;;;5071681;28;20461;-67
2020/12/11 09:57:03;;;;;;;25.70;16.47;;;4.60;99.90;;;;;;5071630;28;21052;-66
2020/12/11 09:59:33;;;;;;;23.30;17.53;;;4.60;99.90;;;;;;5071661;28;20487;-66
2020/12/11 10:02:15;;;;;;;21.17;14.70;;;4.60;99.90;;;;;;5070852;28;20467;-67
2020/12/11 10:04:41;;;;;;;17.20;13.13;;;4.70;99.90;;;;;;5071568;28;20450;-67
2020/12/11 10:07:08;;;;;;;22.37;15.67;;;4.70;99.90;;;;;;5069851;28;21021;-66
2020/12/11 10:09:34;;;;;;;19.00;14.13;;;4.70;99.90;;;;;;5071333;28;20518;-67
2020/12/11 10:12:03;;;;;;;20.40;15.03;;;4.70;99.90;;;;;;5071209;28;20962;-67
2020/12/11 10:14:32;;;;;;;21.97;15.07;;;4.70;99.90;;;;;;5071202;28;20965;-67
2020/12/11 10:16:58;;;;;;;18.97;14.60;;;4.70;99.90;;;;;;5069906;28;20447;-67
2020/12/11 10:19:26;;;;;;;18.90;14.20;;;4.80;99.90;;;;;;5070834;28;20479;-66
2020/12/11 10:21:54;;;;;;;18.20;13.90;;;4.80;99.90;;;;;;5070114;28;20459;-66
2020/12/11 10:24:22;;;;;;;18.37;14.30;;;4.90;99.90;;;;;;5070646;28;20453;-66
2020/12/11 10:26:48;;;;;;;20.67;15.33;;;4.90;99.90;;;;;;5071086;28;20857;-66
2020/12/11 10:29:15;;;;;;;18.63;14.30;;;4.80;99.90;;;;;;5070973;28;20439;-69
2020/12/11 10:31:42;;;;;;;19.10;14.33;;;4.90;99.90;;;;;;5070801;28;20470;-66
2020/12/11 10:34:09;;;;;;;16.03;12.13;;;4.80;99.90;;;;;;5070916;28;20479;-66
2020/12/11 10:36:36;;;;;;;18.93;13.70;;;4.70;99.90;;;;;;5070762;28;20514;-67
2020/12/11 10:39:04;;;;;;;19.17;14.40;;;4.70;99.90;;;;;;5071180;28;20479;-66
2020/12/11 10:41:31;;;;;;;16.93;12.73;;;4.80;99.90;;;;;;5070227;28;20526;-65
2020/12/11 10:43:57;;;;;;;17.03;13.23;;;4.80;99.90;;;;;;5070977;28;20533;-66
2020/12/11 10:46:23;;;;;;;17.43;13.10;;;4.90;99.90;;;;;;5070833;28;20471;-66
2020/12/11 10:48:50;;;;;;;17.07;12.30;;;4.90;99.90;;;;;;5070545;28;20530;-66
2020/12/11 10:51:17;;;;;;;20.07;13.13;;;4.90;99.90;;;;;;5069732;28;20439;-66
2020/12/11 10:53:45;;;;;;;23.40;15.43;;;5.00;99.90;;;;;;5070260;28;21044;-66
2020/12/11 10:56:13;;;;;;;17.10;13.20;;;5.10;99.90;;;;;;5070464;28;20534;-66
2020/12/11 10:58:41;;;;;;;18.77;13.40;;;5.10;99.90;;;;;;5070310;28;21012;-66
2020/12/11 11:01:09;;;;;;;17.60;13.13;;;5.20;99.90;;;;;;5069711;28;20453;-66
2020/12/11 11:03:35;;;;;;;18.53;13.00;;;5.20;99.90;;;;;;5070372;28;20574;-66
2020/12/11 11:06:07;;;;;;;21.90;13.57;;;5.20;99.90;;;;;;5070005;28;20554;-66
2020/12/11 11:08:41;;;;;;;16.60;13.33;;;5.10;99.90;;;;;;5070106;28;20451;-66
2020/12/11 11:11:08;;;;;;;19.30;13.73;;;5.10;99.90;;;;;;5069451;28;20445;-66
2020/12/11 11:13:44;;;;;;;25.33;13.10;;;5.00;99.90;;;;;;5069784;28;20478;-66
2020/12/11 11:16:11;;;;;;;17.87;12.57;;;5.00;99.90;;;;;;5069703;28;20521;-66
2020/12/11 11:18:44;;;;;;;21.70;14.10;;;5.00;99.90;;;;;;5069931;28;20508;-65
2020/12/11 11:21:35;;;;;;;17.57;13.30;;;4.80;99.90;;;;;;5069132;28;21150;-66
2020/12/11 11:27:06;;;;;;;17.70;12.90;;;4.80;99.90;;;;;;5069337;28;20431;-66
2020/12/11 11:29:33;;;;;;;16.40;12.87;;;5.00;99.90;;;;;;5069885;28;20530;-66
2020/12/11 11:31:59;;;;;;;16.27;12.00;;;5.10;99.90;;;;;;5068888;28;20469;-66
2020/12/11 11:34:25;;;;;;;17.27;13.47;;;5.20;99.90;;;;;;5069729;28;20535;-66
2020/12/11 11:36:53;;;;;;;21.27;13.47;;;5.30;99.90;;;;;;5069790;28;20439;-66
2020/12/11 11:39:19;;;;;;;17.50;13.67;;;5.40;99.90;;;;;;5069573;28;20510;-66
2020/12/11 11:41:46;;;;;;;18.00;12.80;;;5.50;99.90;;;;;;5069050;28;20455;-66
2020/12/11 11:44:33;;;;;;;16.40;12.23;;;5.50;99.90;;;;;;5069255;28;20454;-66
2020/12/11 11:47:00;;;;;;;20.00;14.27;;;5.40;99.90;;;;;;5069434;28;20443;-66
2020/12/11 11:49:30;;;;;;;15.90;12.83;;;5.20;99.90;;;;;;5069371;28;20542;-66
2020/12/11 11:52:06;;;;;;;15.87;12.90;;;5.20;99.90;;;;;;5068780;28;20512;-65
2020/12/11 11:54:35;;;;;;;19.93;15.17;;;5.30;99.90;;;;;;5069255;28;20443;-66
2020/12/11 11:57:01;;;;;;;18.00;14.10;;;5.50;99.90;;;;;;5069332;28;20874;-66
2020/12/11 11:59:28;;;;;;;18.77;13.90;;;5.70;99.90;;;;;;5069266;28;20583;-66
2020/12/11 12:01:55;;;;;;;18.37;13.60;;;5.80;99.90;;;;;;5068471;28;20518;-66
2020/12/11 12:04:21;;;;;;;19.23;14.60;;;5.90;99.90;;;;;;5069230;28;20439;-66
2020/12/11 12:06:47;;;;;;;15.80;12.80;;;6.10;99.90;;;;;;5068098;28;20475;-66
2020/12/11 12:09:16;;;;;;;23.97;16.50;;;6.10;99.90;;;;;;5069645;28;20526;-66
2020/12/11 12:11:43;;;;;;;20.03;14.63;;;6.00;99.90;;;;;;5068513;28;20451;-66
2020/12/11 12:14:09;;;;;;;18.30;13.60;;;6.00;99.90;;;;;;5069287;28;20441;-66
2020/12/11 12:16:37;;;;;;;20.03;14.67;;;6.10;99.90;;;;;;5069128;28;20466;-65
2020/12/11 12:19:05;;;;;;;20.07;13.53;;;6.10;99.90;;;;;;5069018;28;20471;-65
2020/12/11 12:21:38;;;;;;;16.87;13.60;;;6.10;99.90;;;;;;5068477;28;20443;-65
2020/12/11 12:29:33;;;;;;;18.60;13.10;;;6.10;99.90;;;;;;5069160;28;20430;-66
2020/12/11 12:32:05;;;;;;;19.83;14.97;;;6.10;99.90;;;;;;5068366;28;20909;-66
2020/12/11 12:40:21;;;;;;;19.47;14.27;;;6.30;99.90;;;;;;5065752;28;20516;-66
2020/12/11 12:45:37;;;;;;;19.90;15.10;;;6.10;99.90;;;;;;5072883;28;20415;-66
2020/12/11 12:48:04;;;;;;;18.30;14.40;;;5.90;99.90;;;;;;5072708;28;20833;-66
2020/12/11 12:50:31;;;;;;;17.67;14.70;;;5.80;99.90;;;;;;5071944;28;20961;-66
2020/12/11 12:52:57;;;;;;;19.63;14.43;;;5.90;99.90;;;;;;5072722;28;20546;-65
2020/12/11 12:55:38;;;;;;;19.00;14.53;;;6.00;99.90;;;;;;5072510;28;20497;-65
2020/12/11 12:58:05;;;;;;;16.77;14.40;;;5.90;99.90;;;;;;5069433;28;21003;-65
2020/12/11 13:00:35;;;;;;;19.83;13.93;;;5.80;99.90;;;;;;5068439;28;20628;-65
2020/12/11 13:03:22;;;;;;;21.03;13.90;;;5.80;99.90;;;;;;5068318;28;20989;-64